Flight Track Log - Related Links

Times and Time Zones

All times are in EST time to prevent confusion due to time zone crossing. See the SWA620 flight status page for this flight to view local times or setup timezone preferences in your user account.


Time Position Orientation Groundspeed Altitude Reporting Facility
EST Latitude Longitude Course Direction KTS MPH feet Rate Location/Type
Tue 09:26:57 AM 33.9342 -118.4381 233° Southwest 189 217 1,800  Level Los Angeles Center
Tue 09:27:58 AM 33.8967 -118.4986 233° Southwest 233 268 4,700 3,689 Climbing Los Angeles Center
Tue 09:28:59 AM 33.8747 -118.5800 252° West 260 299 9,300 3,639 Climbing Los Angeles Center
Tue 09:30:00 AM 33.8597 -118.6758 259° West 310 357 12,100 3,246 Climbing Los Angeles Center
Tue 09:31:01 AM 33.8636 -118.7953 272° West 351 404 15,900 3,787 Climbing Los Angeles Center
Tue 09:32:02 AM 33.9092 -118.8956 299° West 345 397 19,800 3,344 Climbing Los Angeles Center
Tue 09:33:03 AM 33.9847 -118.9800 317° Northwest 369 425 22,700 2,852 Climbing Los Angeles Center
Tue 09:34:04 AM 34.0589 -119.0672 316° Northwest 374 430 25,600 2,902 Climbing Los Angeles Center
Tue 09:35:05 AM 34.1394 -119.1536 318° Northwest 383 441 28,600 3,049 Climbing Los Angeles Center
Tue 09:36:06 AM 34.2139 -119.2350 318° Northwest 366 421 31,800 2,164 Climbing Los Angeles Center
Tue 09:37:07 AM 34.2856 -119.3139 318° Northwest 351 404 33,000 1,805 Climbing Los Angeles Center
Tue 09:38:09 AM 34.3772 -119.3553 340° North 355 409 35,500 2,488 Climbing Los Angeles Center
Tue 09:39:10 AM 34.4775 -119.3714 352° North 362 417 38,100 1,721 Climbing Los Angeles Center
Tue 09:40:11 AM 34.5722 -119.3894 351° North 347 399 39,000 689 Climbing Los Angeles Center
Tue 09:41:12 AM 34.6742 -119.4067 352° North 356 410 39,500 488 Climbing Los Angeles Center
Tue 09:42:14 AM 34.8008 -119.4289 352° North 373 429 40,000 244 Climbing Los Angeles Center
Tue 09:43:15 AM 34.9103 -119.4497 351° North 392 451 40,000  Level Los Angeles Center
Tue 09:44:16 AM 35.0200 -119.4686 352° North 397 457 40,000  Level Los Angeles Center
Tue 09:45:18 AM 35.1278 -119.4881 352° North 394 453 40,000  Level Los Angeles Center
Tue 09:46:19 AM 35.2364 -119.5083 351° North 397 457 40,000  Level Los Angeles Center
Tue 09:47:20 AM 35.3447 -119.5286 351° North 396 456 40,000  Level Los Angeles Center
Tue 09:48:22 AM 35.4533 -119.5478 352° North 396 456 40,000  Level Los Angeles Center
Tue 09:49:23 AM 35.5600 -119.5683 351° North 393 452 40,000  Level Los Angeles Center
Tue 09:50:11 AM 35.6669 -119.5875 352° North 393 452 40,000  Level Oakland Center
Tue 09:51:12 AM 35.7747 -119.6072 352° North 394 453 40,000  Level Oakland Center
Tue 09:52:13 AM 35.8839 -119.6267 352° North 396 456 40,000  Level Oakland Center
Tue 09:53:14 AM 35.9931 -119.6483 351° North 398 458 40,000  Level Oakland Center
Tue 09:54:14 AM 36.1000 -119.6714 350° North 394 453 40,000  Level Oakland Center
Tue 09:55:15 AM 36.1978 -119.7231 337° Northwest 387 445 40,000  Level Oakland Center
Tue 09:56:16 AM 36.2956 -119.7736 337° Northwest 383 441 40,000  Level Oakland Center
Tue 09:57:17 AM 36.3925 -119.8214 338° Northwest 379 436 40,000  Level Oakland Center
Tue 09:58:18 AM 36.4872 -119.8692 338° Northwest 372 428 40,000 -298 Level Oakland Center
Tue 09:59:18 AM 36.5819 -119.9169 338° Northwest 369 425 39,400 -793 Descending Oakland Center
Tue 10:00:19 AM 36.6747 -119.9653 337° Northwest 363 418 38,400 -1,475 Descending Oakland Center
Tue 10:01:20 AM 36.7611 -120.0094 338° Northwest 340 391 36,400 -1,967 Descending Oakland Center
Tue 10:02:21 AM 36.8475 -120.0536 338° Northwest 335 386 34,400 -1,525 Descending Oakland Center
Tue 10:03:22 AM 36.9578 -120.1106 338° Northwest 356 410 33,300 -934 Descending Oakland Center
Tue 10:04:23 AM 37.0392 -120.1542 337° Northwest 358 412 32,500 -934 Descending Oakland Center
Tue 10:05:24 AM 37.1292 -120.1992 338° Northwest 350 403 31,400 -1,488 Descending Oakland Center
Tue 10:06:24 AM 37.2194 -120.2467 337° Northwest 351 404 29,500 -2,182 Descending Oakland Center
Tue 10:07:25 AM 37.3089 -120.2931 338° Northwest 349 402 27,000 -2,508 Descending Oakland Center
Tue 10:08:26 AM 37.4064 -120.3431 338° Northwest 371 427 24,400 -1,820 Descending Oakland Center
Tue 10:09:27 AM 37.5056 -120.4339 324° Northwest 364 419 23,300 -1,020 Descending Oakland Center
Tue 10:10:53 AM 37.6167 -120.5333 325° Northwest 342 394 21,900 -984 Descending Northern Cal TRACON
Tue 10:11:29 AM 37.6553 -120.5819 315° West 340 391 21,300 -990 Descending Oakland Center
Tue 10:12:30 AM 37.7283 -120.6553 322° Northwest 336 387 20,300 -984 Descending Oakland Center
Tue 10:13:31 AM 37.8028 -120.7303 321° Northwest 340 391 19,300 -885 Descending Oakland Center
Tue 10:15:33 AM 37.9347 -120.8925 316° Northwest 331 381 17,600 -885 Descending Oakland Center
Tue 10:16:34 AM 38.0000 -120.9756 315° West 331 381 16,600 -1,279 Descending Oakland Center
Tue 10:17:35 AM 38.0647 -121.0589 315° West 331 381 15,000 -1,937 Descending Oakland Center
Tue 10:18:41 AM 38.1333 -121.1500 314° West 316 364 12,500 -2,190 Descending Northern Cal TRACON
Tue 10:19:41 AM 38.2000 -121.2333 316° Northwest 313 360 10,400 -1,684 Descending Northern Cal TRACON
Tue 10:20:35 AM 38.2500 -121.3000 314° West 286 329 9,300 -1,579 Descending Northern Cal TRACON
Tue 10:21:35 AM 38.3000 -121.3667 314° West 277 319 7,400 -2,050 Descending Northern Cal TRACON
Tue 10:22:35 AM 38.3500 -121.4333 314° West 275 316 5,200 -2,000 Descending Northern Cal TRACON
Tue 10:23:29 AM 38.4000 -121.5000 314° West 263 303 3,600 -1,100 Descending Northern Cal TRACON
Tue 10:24:35 AM 38.4500 -121.5667 314° West 230 265 3,000 -700 Descending Northern Cal TRACON
Tue 10:25:29 AM 38.5000 -121.6000 332° Northwest 203 234 2,200 -526 Descending Northern Cal TRACON
Tue 10:26:29 AM 38.5500 -121.6000 360° North 184 212 2,000 -211 Descending Northern Cal TRACON
Tue 10:27:23 AM 38.6000 -121.6000 360° North 179 206 1,800 -526 Descending Northern Cal TRACON
Tue 10:28:23 AM 38.6333 -121.6000 360° North 146 168 1,000 -750 Descending Northern Cal TRACON
Tue 10:29:23 AM 38.6667 -121.6000 360° North 122 140 300 -700 Descending Northern Cal TRACON
Tue 10:31:00 AM 38.6833 -121.5833 46° Northeast  Level FlightAware Approximate

Login

Don't have an account? Register now (free) for customized features, flight alerts, and more!